Time;durP1;ratioP1;P1;durP2;ratioP2;P2;SDS_P1;SDS_P2;PMS_P1;PMS_P2;Temp;Humidity;BMP_temperature;BMP_pressure;BME280_temperature;BME280_humidity;BME280_pressure;Samples;Min_cycle;Max_cycle;Signal;HPM_P1;HPM_P2
2021/10/28 00:12:13;;;;;;;20.48;10.20;;;8.20;99.90;;;;;;4941747;29;20026;-68
2021/10/28 00:13:11;;;;;;;18.35;9.88;;;7.80;99.90;;;;;;4940537;29;20472;-68
2021/10/28 00:15:42;;;;;;;19.27;8.95;;;7.80;99.90;;;;;;4939788;29;20035;-68
2021/10/28 00:18:17;;;;;;;19.15;9.23;;;7.70;99.90;;;;;;4939638;29;20074;-68
2021/10/28 00:20:46;;;;;;;18.40;9.50;;;7.60;99.90;;;;;;4940223;29;20483;-68
2021/10/28 00:23:13;;;;;;;20.48;10.85;;;7.60;99.90;;;;;;4939694;29;20024;-68
2021/10/28 00:25:41;;;;;;;26.30;11.98;;;7.50;99.90;;;;;;4939712;29;20051;-68
2021/10/28 00:28:10;;;;;;;23.05;10.93;;;7.50;99.90;;;;;;4939882;29;20030;-68
2021/10/28 00:30:38;;;;;;;21.95;10.50;;;7.50;99.90;;;;;;4938591;29;20111;-68
2021/10/28 00:33:05;;;;;;;25.20;10.95;;;7.50;99.90;;;;;;4939403;29;20031;-68
2021/10/28 00:35:34;;;;;;;24.48;11.32;;;7.40;99.90;;;;;;4939691;29;20050;-68
2021/10/28 00:38:03;;;;;;;28.02;11.52;;;7.40;99.90;;;;;;4939339;29;20028;-68
2021/10/28 00:40:31;;;;;;;23.55;11.93;;;7.40;99.90;;;;;;4970651;28;20039;-68
2021/10/28 00:42:59;;;;;;;25.05;12.25;;;7.50;99.90;;;;;;4978807;28;20331;-68
2021/10/28 00:45:27;;;;;;;37.08;14.57;;;7.40;99.90;;;;;;4979389;28;20019;-68
2021/10/28 00:47:55;;;;;;;35.50;14.98;;;7.40;99.90;;;;;;4978669;28;20110;-68
2021/10/28 00:50:22;;;;;;;38.95;16.35;;;7.40;99.90;;;;;;4979215;28;20027;-68
2021/10/28 00:52:50;;;;;;;32.55;13.45;;;7.50;99.90;;;;;;4978605;28;20023;-68
2021/10/28 00:55:18;;;;;;;39.13;16.77;;;7.50;99.90;;;;;;4979017;28;20094;-68
2021/10/28 00:57:46;;;;;;;41.22;16.20;;;7.50;99.90;;;;;;4977732;28;20073;-68
2021/10/28 01:00:14;;;;;;;35.30;15.07;;;7.50;99.90;;;;;;4978227;28;20026;-68
2021/10/28 01:02:41;;;;;;;41.58;14.48;;;7.60;99.90;;;;;;4977620;28;20022;-68
2021/10/28 01:05:09;;;;;;;27.58;13.15;;;7.60;99.90;;;;;;4977593;28;20027;-68
2021/10/28 01:07:37;;;;;;;38.05;16.70;;;7.60;99.90;;;;;;4977772;28;20497;-68
2021/10/28 01:10:05;;;;;;;40.47;15.95;;;7.50;99.90;;;;;;4978114;28;20078;-68
2021/10/28 01:12:33;;;;;;;45.47;16.73;;;7.60;99.90;;;;;;4977450;28;20470;-68
2021/10/28 01:15:01;;;;;;;37.15;15.55;;;7.60;99.90;;;;;;4978090;28;20030;-68
2021/10/28 01:17:32;;;;;;;45.50;17.40;;;7.60;99.90;;;;;;4978101;28;20320;-68
2021/10/28 01:19:59;;;;;;;43.47;17.77;;;7.60;99.90;;;;;;4960882;28;20452;-68
2021/10/28 01:22:27;;;;;;;46.00;16.75;;;7.60;99.90;;;;;;4978376;28;20022;-68
2021/10/28 01:24:54;;;;;;;39.30;16.70;;;7.60;99.90;;;;;;4978886;28;20026;-68
2021/10/28 01:27:22;;;;;;;48.13;17.23;;;7.60;99.90;;;;;;4978447;28;20019;-68
2021/10/28 01:29:50;;;;;;;41.85;17.23;;;7.60;99.90;;;;;;4978825;28;20041;-68
2021/10/28 01:32:18;;;;;;;49.60;19.20;;;7.60;99.90;;;;;;4978151;28;20050;-68
2021/10/28 01:34:47;;;;;;;46.33;17.80;;;7.70;99.90;;;;;;4978811;28;20030;-68
2021/10/28 01:37:15;;;;;;;46.58;17.25;;;7.70;99.90;;;;;;4978908;28;20109;-68
2021/10/28 01:39:44;;;;;;;45.08;18.73;;;7.80;99.90;;;;;;4977693;28;20043;-68
2021/10/28 01:42:12;;;;;;;42.10;15.82;;;7.80;99.90;;;;;;4977202;28;20034;-68
2021/10/28 01:44:41;;;;;;;44.83;15.68;;;7.80;99.90;;;;;;4977474;28;20058;-68
2021/10/28 01:47:16;;;;;;;41.47;15.57;;;7.70;99.90;;;;;;4977350;28;20038;-68
2021/10/28 01:49:43;;;;;;;33.42;14.48;;;7.80;99.90;;;;;;4977777;28;20077;-68
2021/10/28 01:52:14;;;;;;;31.15;13.07;;;7.70;99.90;;;;;;4961653;28;20336;-68
2021/10/28 01:54:42;;;;;;;30.15;13.43;;;7.70;99.90;;;;;;4981432;28;20034;-68
2021/10/28 01:57:23;;;;;;;27.42;12.80;;;7.60;99.90;;;;;;4980961;28;20453;-68
2021/10/28 01:59:50;;;;;;;29.98;13.07;;;7.50;99.90;;;;;;4981059;28;20101;-68
2021/10/28 02:02:18;;;;;;;25.27;12.23;;;7.50;99.90;;;;;;4964049;28;20374;-68
2021/10/28 02:04:45;;;;;;;23.17;11.95;;;7.40;99.90;;;;;;4964495;28;20027;-68
2021/10/28 02:07:13;;;;;;;24.17;11.82;;;7.40;99.90;;;;;;4981712;28;20022;-68
2021/10/28 02:09:42;;;;;;;23.52;11.50;;;7.30;99.90;;;;;;4981528;28;20388;-68
2021/10/28 02:12:09;;;;;;;23.83;12.38;;;7.30;99.90;;;;;;4981413;28;20074;-68
2021/10/28 02:14:37;;;;;;;34.17;13.25;;;7.20;99.90;;;;;;4981445;28;20027;-68
2021/10/28 02:17:04;;;;;;;30.15;13.63;;;7.20;99.90;;;;;;4964364;28;20118;-68
2021/10/28 02:19:32;;;;;;;33.85;13.98;;;7.20;99.90;;;;;;4964184;28;20109;-68
2021/10/28 02:22:00;;;;;;;29.88;12.95;;;7.10;99.90;;;;;;4981141;28;20033;-68
2021/10/28 02:24:29;;;;;;;29.02;12.50;;;7.10;99.90;;;;;;4980830;28;20054;-68
2021/10/28 02:26:59;;;;;;;31.10;14.10;;;7.10;99.90;;;;;;4981032;28;20043;-68
2021/10/28 02:29:27;;;;;;;36.97;14.73;;;7.10;99.90;;;;;;4980229;28;20431;-68
2021/10/28 02:31:57;;;;;;;42.55;15.77;;;7.10;99.90;;;;;;4980138;28;20062;-68
2021/10/28 02:34:25;;;;;;;42.47;14.95;;;7.10;99.90;;;;;;4980330;28;20351;-68
2021/10/28 02:36:52;;;;;;;39.05;16.80;;;7.10;99.90;;;;;;4980340;28;20054;-68
2021/10/28 02:39:20;;;;;;;52.65;18.83;;;7.10;99.90;;;;;;4959620;29;20074;-68
2021/10/28 02:41:47;;;;;;;50.85;18.63;;;7.20;99.90;;;;;;4959741;29;20031;-68
2021/10/28 02:44:15;;;;;;;55.35;19.15;;;7.30;99.90;;;;;;4960681;29;20023;-68
2021/10/28 02:46:43;;;;;;;53.35;18.70;;;7.30;99.90;;;;;;4960516;28;20122;-68
2021/10/28 02:49:14;;;;;;;52.78;19.27;;;7.30;99.90;;;;;;4962025;29;20424;-68
2021/10/28 02:51:46;;;;;;;51.58;17.30;;;7.30;99.90;;;;;;4961417;29;20424;-68
2021/10/28 02:54:20;;;;;;;51.20;19.05;;;7.30;99.90;;;;;;4961621;28;20023;-68
2021/10/28 02:56:48;;;;;;;53.17;19.30;;;7.30;99.90;;;;;;4961823;29;20315;-68
2021/10/28 02:59:17;;;;;;;52.67;20.08;;;7.40;99.90;;;;;;4961820;29;20019;-68
2021/10/28 03:01:49;;;;;;;57.28;20.63;;;7.40;99.90;;;;;;4961314;28;20015;-68
2021/10/28 03:04:19;;;;;;;61.45;19.67;;;7.40;99.90;;;;;;4961112;28;20047;-68
2021/10/28 03:06:47;;;;;;;70.25;21.27;;;7.50;99.90;;;;;;4960512;29;20035;-68
2021/10/28 03:09:26;;;;;;;67.68;23.35;;;7.60;99.90;;;;;;4960214;29;20019;-68
2021/10/28 03:11:55;;;;;;;69.60;22.33;;;7.60;99.90;;;;;;4959344;29;20104;-68
2021/10/28 03:14:32;;;;;;;54.75;20.80;;;7.70;99.90;;;;;;4960416;29;20025;-68
2021/10/28 03:25:32;;;;;;;41.63;17.45;;;7.60;99.90;;;;;;4949053;29;20324;-68
2021/10/28 03:25:44;;;;;;;48.22;17.92;;;7.50;99.90;;;;;;4960357;29;20035;-68
2021/10/28 03:28:20;;;;;;;62.85;19.60;;;7.50;99.90;;;;;;4960151;29;20074;-68
2021/10/28 03:30:49;;;;;;;59.00;19.88;;;7.60;99.90;;;;;;4961027;29;20051;-68
2021/10/28 03:33:22;;;;;;;63.88;21.33;;;7.60;99.90;;;;;;4960578;28;20417;-68
2021/10/28 03:35:51;;;;;;;64.65;20.67;;;7.70;99.90;;;;;;4960672;29;20047;-68
2021/10/28 03:38:24;;;;;;;63.13;21.10;;;7.60;99.90;;;;;;4961084;29;20024;-68
2021/10/28 03:46:36;;;;;;;61.28;22.25;;;7.80;99.90;;;;;;4980031;28;20031;-68
2021/10/28 03:57:49;;;;;;;59.28;20.90;;;7.80;99.90;;;;;;4978920;28;20038;-68
2021/10/28 04:08:32;;;;;;;49.28;18.83;;;7.70;99.90;;;;;;4978417;28;20439;-68
2021/10/28 04:30:12;;;;;;;31.42;15.18;;;7.70;99.90;;;;;;4979065;28;20319;-68
2021/10/28 04:32:40;;;;;;;39.10;15.38;;;7.60;99.90;;;;;;4978410;28;20023;-68
2021/10/28 04:35:09;;;;;;;33.42;14.45;;;7.50;99.90;;;;;;4960930;28;20038;-68
2021/10/28 04:37:40;;;;;;;33.72;15.40;;;7.40;99.90;;;;;;4978502;28;20026;-68
2021/10/28 04:40:09;;;;;;;34.50;16.48;;;7.40;99.90;;;;;;4977656;28;20051;-68
2021/10/28 04:42:36;;;;;;;37.30;16.48;;;7.30;99.90;;;;;;4977859;28;20102;-68
2021/10/28 04:45:05;;;;;;;30.73;15.68;;;7.20;99.90;;;;;;4978222;28;20356;-68
2021/10/28 04:47:32;;;;;;;43.80;17.35;;;7.20;99.90;;;;;;4960578;28;20038;-68
2021/10/28 04:50:00;;;;;;;40.10;16.83;;;7.10;99.90;;;;;;4960643;28;20311;-68
2021/10/28 04:52:27;;;;;;;42.67;17.05;;;7.10;99.90;;;;;;4978245;28;20081;-68
2021/10/28 04:54:55;;;;;;;40.47;17.27;;;7.10;99.90;;;;;;4978683;28;20335;-68
2021/10/28 04:57:24;;;;;;;46.58;18.52;;;7.10;99.90;;;;;;4979097;28;20022;-68
2021/10/28 04:59:52;;;;;;;61.72;20.50;;;7.20;99.90;;;;;;4978655;28;20354;-68
2021/10/28 05:02:19;;;;;;;58.65;21.23;;;7.20;99.90;;;;;;4961278;28;20427;-68
2021/10/28 05:04:48;;;;;;;58.38;20.55;;;7.20;99.90;;;;;;4979288;28;20330;-68
2021/10/28 05:07:16;;;;;;;57.45;19.65;;;7.20;99.90;;;;;;4978976;28;20106;-68
2021/10/28 05:09:44;;;;;;;53.90;19.95;;;7.20;99.90;;;;;;4978568;28;20420;-68
2021/10/28 05:12:12;;;;;;;54.15;18.60;;;7.20;99.90;;;;;;4978853;28;20066;-68
2021/10/28 05:14:40;;;;;;;50.88;19.73;;;7.20;99.90;;;;;;4978482;28;20031;-68
2021/10/28 05:17:07;;;;;;;48.25;18.08;;;7.20;99.90;;;;;;4977431;28;20319;-68
2021/10/28 05:19:38;;;;;;;43.20;19.00;;;7.10;99.90;;;;;;4961047;28;20069;-68
2021/10/28 05:22:08;;;;;;;54.03;18.88;;;7.10;99.90;;;;;;4960875;28;20030;-68
2021/10/28 05:24:36;;;;;;;44.72;17.75;;;7.10;99.90;;;;;;4977637;28;20050;-68
2021/10/28 05:27:05;;;;;;;42.28;17.35;;;7.10;99.90;;;;;;4979569;28;20423;-68
2021/10/28 05:29:32;;;;;;;37.05;16.15;;;7.00;99.90;;;;;;4964182;28;20027;-68
2021/10/28 05:32:01;;;;;;;44.65;18.23;;;7.00;99.90;;;;;;4981074;28;20113;-68
2021/10/28 05:34:28;;;;;;;41.38;18.20;;;7.00;99.90;;;;;;4981406;28;20028;-68
2021/10/28 05:36:56;;;;;;;39.28;16.40;;;7.00;99.90;;;;;;4982115;28;20433;-68
2021/10/28 05:39:24;;;;;;;38.33;16.27;;;7.00;99.90;;;;;;4981864;28;20072;-68
2021/10/28 05:41:52;;;;;;;38.65;15.98;;;7.00;99.90;;;;;;4982051;28;20030;-68
2021/10/28 05:44:19;;;;;;;40.45;17.80;;;7.00;99.90;;;;;;4964955;28;20034;-68
2021/10/28 05:46:47;;;;;;;42.88;17.20;;;6.90;99.90;;;;;;4981807;28;20094;-68
2021/10/28 05:49:15;;;;;;;48.20;17.65;;;6.90;99.90;;;;;;4981720;28;20034;-68
2021/10/28 05:51:43;;;;;;;49.95;18.05;;;6.90;99.90;;;;;;4981966;28;20396;-68
2021/10/28 05:54:11;;;;;;;41.88;17.38;;;7.00;99.90;;;;;;4981980;28;20110;-68
2021/10/28 05:56:39;;;;;;;42.65;16.92;;;7.00;99.90;;;;;;4981934;28;20023;-68
2021/10/28 05:59:06;;;;;;;48.53;17.98;;;7.00;99.90;;;;;;4980848;28;20023;-68
2021/10/28 06:01:34;;;;;;;43.83;17.17;;;7.00;99.90;;;;;;4980689;28;20051;-67
2021/10/28 06:04:01;;;;;;;37.97;16.92;;;7.00;99.90;;;;;;4980910;28;20114;-69
2021/10/28 06:06:29;;;;;;;40.58;16.27;;;7.00;99.90;;;;;;4963478;28;20077;-68
2021/10/28 06:08:57;;;;;;;42.35;16.88;;;7.00;99.90;;;;;;4963520;28;20046;-68
2021/10/28 06:11:25;;;;;;;39.15;15.10;;;7.00;99.90;;;;;;4981104;28;20097;-68
2021/10/28 06:13:53;;;;;;;35.40;15.65;;;7.00;99.90;;;;;;4963337;28;20073;-68
2021/10/28 06:16:23;;;;;;;35.33;15.30;;;6.90;99.90;;;;;;4980279;28;20026;-68
2021/10/28 06:18:51;;;;;;;32.58;14.40;;;6.90;99.90;;;;;;4980389;28;20034;-68
2021/10/28 06:21:23;;;;;;;40.17;15.13;;;6.80;99.90;;;;;;4964187;28;20030;-68
2021/10/28 06:23:52;;;;;;;34.35;14.50;;;6.80;99.90;;;;;;4981869;28;20169;-68
2021/10/28 06:26:20;;;;;;;40.60;16.10;;;6.70;99.90;;;;;;4981207;28;20054;-68
2021/10/28 06:28:47;;;;;;;35.65;14.93;;;6.70;99.90;;;;;;4981428;28;20077;-68
2021/10/28 06:31:16;;;;;;;29.85;13.63;;;6.70;99.90;;;;;;4981754;28;20030;-67
2021/10/28 06:33:49;;;;;;;41.22;20.92;;;6.70;99.90;;;;;;4981173;28;20039;-67
2021/10/28 06:36:22;;;;;;;36.50;18.30;;;6.70;99.90;;;;;;4980927;28;20339;-67
2021/10/28 06:38:51;;;;;;;30.20;13.45;;;6.70;99.90;;;;;;4979602;28;20415;-68
2021/10/28 06:41:18;;;;;;;29.83;13.43;;;6.60;99.90;;;;;;4980156;28;20034;-68
2021/10/28 06:43:46;;;;;;;27.73;13.65;;;6.60;99.90;;;;;;4980119;28;20029;-67
2021/10/28 06:46:14;;;;;;;29.02;14.98;;;6.60;99.90;;;;;;4980528;28;20085;-67
2021/10/28 06:48:41;;;;;;;29.75;14.18;;;6.60;99.90;;;;;;4980115;28;20023;-67
2021/10/28 06:51:10;;;;;;;30.00;14.05;;;6.70;99.90;;;;;;4979832;28;20126;-67
2021/10/28 06:53:45;;;;;;;29.83;13.73;;;6.70;99.90;;;;;;4979801;28;20082;-68
2021/10/28 06:56:38;;;;;;;36.10;15.70;;;6.70;99.90;;;;;;4980086;28;20019;-67
2021/10/28 07:04:33;;;;;;;34.03;14.15;;;7.00;99.90;;;;;;4980881;28;20070;-67
2021/10/28 07:07:00;;;;;;;30.48;14.23;;;7.10;99.90;;;;;;4980996;28;20399;-67
2021/10/28 07:12:11;;;;;;;33.05;14.52;;;7.20;99.90;;;;;;4980437;28;20022;-67
2021/10/28 07:14:42;;;;;;;25.23;12.70;;;7.30;99.90;;;;;;4980244;28;20435;-66
2021/10/28 07:30:37;;;;;;;28.48;13.55;;;7.60;99.90;;;;;;4979288;28;20031;-67
2021/10/28 07:33:34;;;;;;;28.17;13.85;;;7.70;99.90;;;;;;4978923;28;20037;-67
2021/10/28 08:14:49;;;;;;;18.73;9.70;;;8.90;99.90;;;;;;4978547;28;20037;-67
2021/10/28 08:17:40;;;;;;;21.55;11.00;;;8.90;99.90;;;;;;4977922;28;20093;-67
2021/10/28 08:20:18;;;;;;;19.25;10.07;;;9.00;99.90;;;;;;4977944;28;20031;-66
2021/10/28 08:23:01;;;;;;;20.10;10.88;;;9.10;99.90;;;;;;4978448;28;20069;-66
2021/10/28 08:31:02;;;;;;;19.02;10.60;;;9.30;99.90;;;;;;4979386;28;20171;-66
2021/10/28 08:33:30;;;;;;;18.20;9.95;;;9.40;99.90;;;;;;4979075;28;20481;-66
2021/10/28 08:36:13;;;;;;;18.77;9.70;;;9.50;99.90;;;;;;4979367;28;20061;-67
2021/10/28 08:38:41;;;;;;;17.38;9.98;;;9.50;99.90;;;;;;4979284;28;20355;-66
2021/10/28 08:41:10;;;;;;;20.77;10.13;;;9.60;99.90;;;;;;4940349;29;20436;-67
2021/10/28 08:43:42;;;;;;;15.48;8.80;;;9.70;99.90;;;;;;4939264;29;20332;-67
2021/10/28 08:46:11;;;;;;;15.35;9.18;;;9.80;99.90;;;;;;4940131;29;20082;-67
2021/10/28 08:48:49;;;;;;;13.52;8.10;;;9.80;99.90;;;;;;4939546;29;20027;-67
2021/10/28 08:51:26;;;;;;;16.85;8.35;;;9.80;99.90;;;;;;4940144;29;20054;-67
2021/10/28 08:54:19;;;;;;;15.35;8.70;;;9.90;99.90;;;;;;4939546;29;20027;-67
2021/10/28 08:56:57;;;;;;;15.80;8.63;;;9.90;99.90;;;;;;4939163;29;20042;-67
2021/10/28 09:25:42;;;;;;;14.15;7.80;;;10.50;99.90;;;;;;4940397;29;20170;-67
2021/10/28 09:28:39;;;;;;;11.63;7.43;;;10.70;99.90;;;;;;4939666;29;20031;-66
2021/10/28 09:31:15;;;;;;;12.88;7.20;;;10.80;99.90;;;;;;4939452;29;20042;-67
2021/10/28 09:34:01;;;;;;;18.20;8.40;;;10.80;99.90;;;;;;4939225;29;20051;-67
2021/10/28 09:45:11;;;;;;;11.52;7.07;;;11.00;99.90;;;;;;4977929;28;20257;-67
2021/10/28 09:48:01;;;;;;;13.50;7.40;;;11.00;99.90;;;;;;4974153;28;20121;-67
2021/10/28 09:50:53;;;;;;;11.85;6.38;;;11.10;99.90;;;;;;4977438;28;20038;-67
2021/10/28 09:54:17;;;;;;;13.82;6.70;;;11.10;99.90;;;;;;4978131;28;20023;-67
2021/10/28 09:59:48;;;;;;;11.27;6.15;;;11.30;99.90;;;;;;4978578;28;20082;-72
2021/10/28 10:02:35;;;;;;;9.80;6.47;;;11.30;99.90;;;;;;4960898;28;20027;-72
2021/10/28 10:05:23;;;;;;;9.43;5.32;;;11.40;99.90;;;;;;4978636;28;20438;-72
2021/10/28 10:07:57;;;;;;;11.07;5.63;;;11.40;99.90;;;;;;4978055;28;20030;-72
2021/10/28 10:10:28;;;;;;;8.77;4.68;;;11.40;99.90;;;;;;4977918;28;20101;-72
2021/10/28 10:12:57;;;;;;;9.35;3.30;;;11.50;99.90;;;;;;4978211;28;20206;-72
2021/10/28 10:15:24;;;;;;;8.70;3.17;;;11.60;99.90;;;;;;4980762;28;20023;-72
2021/10/28 10:17:57;;;;;;;8.70;2.35;;;11.70;99.90;;;;;;4980561;28;20018;-72
2021/10/28 10:20:38;;;;;;;3.28;1.92;;;11.90;99.90;;;;;;4981201;28;20023;-71
2021/10/28 10:29:28;;;;;;;8.20;2.00;;;12.60;99.90;;;;;;4980709;28;20031;-70
2021/10/28 11:22:40;;;;;;;5.10;2.42;;;13.30;99.90;;;;;;4980592;28;20371;-71
2021/10/28 12:24:37;;;;;;;3.53;1.67;;;14.40;99.90;;;;;;4978171;28;20026;-71
2021/10/28 12:44:24;;;;;;;3.03;1.40;;;15.00;99.90;;;;;;4940783;29;20069;-68
2021/10/28 13:50:42;;;;;;;3.25;1.20;;;16.60;94.30;;;;;;4981323;28;20073;-69
2021/10/28 13:56:07;;;;;;;4.28;1.25;;;18.40;91.30;;;;;;4981123;28;20387;-69
2021/10/28 14:58:35;;;;;;;2.60;1.70;;;16.20;85.00;;;;;;4959762;29;20437;-79
2021/10/28 15:29:17;;;;;;;3.97;2.13;;;14.10;96.00;;;;;;4960038;29;20039;-69
2021/10/28 15:39:50;;;;;;;4.85;2.80;;;13.70;98.00;;;;;;4967500;28;20392;-68
2021/10/28 16:22:56;;;;;;;8.07;4.43;;;12.50;99.90;;;;;;4979497;28;20061;-69
2021/10/28 16:25:24;;;;;;;9.57;5.57;;;12.40;99.90;;;;;;4979151;28;20126;-68
2021/10/28 16:27:52;;;;;;;5.32;3.60;;;12.30;99.90;;;;;;4979628;28;20030;-69
2021/10/28 16:30:20;;;;;;;7.35;3.72;;;12.30;99.90;;;;;;4979252;28;20415;-69
2021/10/28 16:32:47;;;;;;;5.72;3.03;;;12.20;99.90;;;;;;4979134;28;20031;-69
2021/10/28 16:35:15;;;;;;;8.15;4.03;;;12.10;99.90;;;;;;4978510;28;20034;-69
2021/10/28 16:37:43;;;;;;;10.43;5.38;;;12.10;99.90;;;;;;4978069;28;20101;-69
2021/10/28 16:40:11;;;;;;;7.50;3.85;;;12.10;99.90;;;;;;4957637;29;20051;-69
2021/10/28 16:42:39;;;;;;;7.30;3.90;;;12.00;99.90;;;;;;4957647;29;20042;-69
2021/10/28 16:45:08;;;;;;;11.73;5.70;;;11.90;99.90;;;;;;4958711;28;20031;-69
2021/10/28 16:47:37;;;;;;;8.13;3.85;;;11.80;99.90;;;;;;4958864;28;20027;-69
2021/10/28 16:50:07;;;;;;;6.82;3.25;;;11.70;99.90;;;;;;4958800;29;20440;-68
2021/10/28 16:52:36;;;;;;;5.43;3.85;;;11.60;99.90;;;;;;4959022;28;20034;-69
2021/10/28 16:55:04;;;;;;;6.68;3.95;;;11.60;99.90;;;;;;4958551;29;20019;-69
2021/10/28 16:57:32;;;;;;;7.22;4.10;;;11.50;99.90;;;;;;4957685;29;20023;-68
2021/10/28 17:00:00;;;;;;;8.35;4.13;;;11.50;99.90;;;;;;4959392;28;20547;-68
2021/10/28 17:02:29;;;;;;;4.50;3.05;;;11.50;99.90;;;;;;4959235;28;20041;-69
2021/10/28 17:04:57;;;;;;;9.25;3.55;;;11.40;99.90;;;;;;4959813;29;20027;-68
2021/10/28 17:07:24;;;;;;;7.25;4.78;;;11.40;99.90;;;;;;4959211;28;20031;-68
2021/10/28 17:09:52;;;;;;;9.13;4.40;;;11.30;99.90;;;;;;4959962;28;20027;-69
2021/10/28 17:12:21;;;;;;;6.50;4.05;;;11.30;99.90;;;;;;4958121;29;20038;-68
2021/10/28 17:14:49;;;;;;;7.95;4.30;;;11.30;99.90;;;;;;4959381;28;20051;-69
2021/10/28 17:17:17;;;;;;;8.70;4.13;;;11.20;99.90;;;;;;4958993;28;20023;-69
2021/10/28 17:19:47;;;;;;;9.50;5.10;;;11.20;99.90;;;;;;4958779;28;20090;-68
2021/10/28 17:22:15;;;;;;;11.75;5.82;;;11.20;99.90;;;;;;4958479;28;20022;-69
2021/10/28 17:24:49;;;;;;;11.50;6.10;;;11.20;99.90;;;;;;4962419;28;20124;-68
2021/10/28 17:27:18;;;;;;;9.13;5.68;;;11.20;99.90;;;;;;4961084;29;20028;-68
2021/10/28 17:29:45;;;;;;;11.23;5.78;;;11.20;99.90;;;;;;4962156;28;20110;-69
2021/10/28 17:32:14;;;;;;;13.32;6.10;;;11.20;99.90;;;;;;4961892;28;20024;-69
2021/10/28 17:34:42;;;;;;;12.57;5.45;;;11.20;99.90;;;;;;4962239;28;20031;-68
2021/10/28 17:37:10;;;;;;;14.23;5.78;;;11.30;99.90;;;;;;4962536;28;20106;-68
2021/10/28 17:39:37;;;;;;;11.43;5.97;;;11.30;99.90;;;;;;4961034;29;20071;-69
2021/10/28 17:42:04;;;;;;;10.18;5.35;;;11.40;99.90;;;;;;4963016;28;20023;-69
2021/10/28 17:44:50;;;;;;;8.90;5.40;;;11.30;99.90;;;;;;4963000;28;20027;-68
2021/10/28 17:47:19;;;;;;;12.13;5.60;;;11.30;99.90;;;;;;4962660;28;20444;-68
2021/10/28 17:49:47;;;;;;;10.07;5.18;;;11.30;99.90;;;;;;4963038;28;20436;-68
2021/10/28 17:52:17;;;;;;;10.23;6.43;;;11.40;99.90;;;;;;4962606;28;20379;-68
2021/10/28 17:54:45;;;;;;;9.20;5.15;;;11.30;99.90;;;;;;4962854;28;20030;-68
2021/10/28 17:57:14;;;;;;;10.95;7.00;;;11.30;99.90;;;;;;4962567;28;20028;-68
2021/10/28 17:59:42;;;;;;;12.02;6.30;;;11.30;99.90;;;;;;4962352;28;20127;-68
2021/10/28 18:02:10;;;;;;;11.05;6.45;;;11.30;99.90;;;;;;4961776;28;20023;-69
2021/10/28 18:04:38;;;;;;;12.93;7.25;;;11.20;99.90;;;;;;4962240;28;20459;-68
2021/10/28 18:07:06;;;;;;;12.80;7.22;;;11.10;99.90;;;;;;4961489;28;20030;-68
2021/10/28 18:09:35;;;;;;;15.20;6.88;;;11.10;99.90;;;;;;4961515;28;20024;-69
2021/10/28 18:12:03;;;;;;;11.57;7.30;;;11.10;99.90;;;;;;4962100;28;20059;-69
2021/10/28 18:14:30;;;;;;;11.23;6.97;;;11.00;99.90;;;;;;4961876;28;20023;-70
2021/10/28 18:16:58;;;;;;;14.15;7.43;;;11.00;99.90;;;;;;4961276;28;20125;-69
2021/10/28 18:19:26;;;;;;;13.32;8.43;;;11.00;99.90;;;;;;4961244;28;20367;-68
2021/10/28 18:21:56;;;;;;;18.70;8.52;;;10.90;99.90;;;;;;4961784;28;20070;-69
2021/10/28 18:24:25;;;;;;;13.88;8.52;;;10.90;99.90;;;;;;4962138;28;20055;-68
2021/10/28 18:26:54;;;;;;;19.13;9.77;;;10.80;99.90;;;;;;4962055;28;20359;-68
2021/10/28 18:29:22;;;;;;;15.45;9.07;;;10.80;99.90;;;;;;4962146;28;20054;-68
2021/10/28 18:31:52;;;;;;;14.50;8.82;;;10.70;99.90;;;;;;4962393;28;20446;-68
2021/10/28 18:34:20;;;;;;;15.15;8.98;;;10.60;99.90;;;;;;4960604;28;20439;-68
2021/10/28 18:36:50;;;;;;;19.60;10.88;;;10.60;99.90;;;;;;4962422;28;20480;-68
2021/10/28 18:39:19;;;;;;;18.20;9.40;;;10.60;99.90;;;;;;4965430;28;20046;-69
2021/10/28 18:41:48;;;;;;;16.25;8.95;;;10.50;99.90;;;;;;4981365;28;20105;-68
2021/10/28 18:44:16;;;;;;;19.15;10.00;;;10.50;99.90;;;;;;4963047;28;20027;-68
2021/10/28 18:46:45;;;;;;;16.63;10.30;;;10.30;99.90;;;;;;4962890;28;20117;-68
2021/10/28 18:49:13;;;;;;;18.35;9.70;;;10.30;99.90;;;;;;4980269;28;20082;-68
2021/10/28 18:51:43;;;;;;;20.50;11.57;;;10.20;99.90;;;;;;4980563;28;20019;-69
2021/10/28 18:54:15;;;;;;;16.63;10.23;;;10.10;99.90;;;;;;4980439;28;20026;-68
2021/10/28 18:56:44;;;;;;;16.65;10.13;;;10.00;99.90;;;;;;4980433;28;20022;-68
2021/10/28 18:59:12;;;;;;;17.75;10.95;;;9.90;99.90;;;;;;4980068;28;20023;-68
2021/10/28 19:01:41;;;;;;;17.65;10.65;;;9.80;99.90;;;;;;4962658;28;20029;-68
2021/10/28 19:04:08;;;;;;;21.20;12.52;;;9.70;99.90;;;;;;4979833;28;20030;-68
2021/10/28 19:06:36;;;;;;;21.23;12.70;;;9.60;99.90;;;;;;4980378;28;20046;-68
2021/10/28 19:09:04;;;;;;;21.85;11.68;;;9.40;99.90;;;;;;4980833;28;20490;-68
2021/10/28 19:11:32;;;;;;;23.30;13.43;;;9.30;99.90;;;;;;4980626;28;20031;-68
2021/10/28 19:13:59;;;;;;;23.77;13.85;;;9.20;99.90;;;;;;4979187;28;20031;-68
2021/10/28 19:16:27;;;;;;;22.05;12.45;;;9.10;99.90;;;;;;4963164;28;20023;-68
2021/10/28 19:18:54;;;;;;;24.75;14.82;;;9.00;99.90;;;;;;4963461;28;20459;-68
2021/10/28 19:21:22;;;;;;;26.88;14.45;;;8.80;99.90;;;;;;4963176;28;20094;-68
2021/10/28 19:23:50;;;;;;;28.25;15.63;;;8.70;99.90;;;;;;4980422;28;20106;-68
2021/10/28 19:26:18;;;;;;;27.25;14.77;;;8.60;99.90;;;;;;4979826;28;20030;-68
2021/10/28 19:28:45;;;;;;;24.27;14.63;;;8.50;99.90;;;;;;4962346;28;20026;-68
2021/10/28 19:33:49;;;;;;;27.27;14.88;;;8.40;99.90;;;;;;4979475;28;20451;-68
2021/10/28 19:36:32;;;;;;;27.02;15.98;;;8.30;99.90;;;;;;4979120;28;20049;-69
2021/10/28 19:41:55;;;;;;;29.33;15.93;;;8.20;99.90;;;;;;4979125;28;20031;-68
2021/10/28 19:47:14;;;;;;;26.83;15.45;;;8.00;99.90;;;;;;4978793;28;20033;-69
2021/10/28 19:49:47;;;;;;;30.45;16.23;;;8.00;99.90;;;;;;4962595;28;20027;-69
2021/10/28 19:52:16;;;;;;;28.10;15.60;;;7.90;99.90;;;;;;4979629;28;20019;-68
2021/10/28 19:54:47;;;;;;;27.30;15.45;;;7.90;99.90;;;;;;4962732;28;20326;-68
2021/10/28 19:57:19;;;;;;;33.03;17.48;;;7.90;99.90;;;;;;4962474;28;20118;-68
2021/10/28 19:59:53;;;;;;;26.75;14.27;;;7.80;99.90;;;;;;4962439;28;20431;-68
2021/10/28 20:21:11;;;;;;;28.45;14.93;;;7.60;99.90;;;;;;4978614;28;20037;-69
2021/10/28 20:23:40;;;;;;;27.75;15.20;;;7.60;99.90;;;;;;4978480;28;20030;-70
2021/10/28 20:26:08;;;;;;;24.95;14.82;;;7.50;99.90;;;;;;4961116;28;20042;-70
2021/10/28 20:28:44;;;;;;;27.40;14.50;;;7.50;99.90;;;;;;4978802;28;20023;-70
2021/10/28 20:31:13;;;;;;;29.42;15.80;;;7.50;99.90;;;;;;4978738;28;20030;-70
2021/10/28 20:33:49;;;;;;;24.15;13.98;;;7.50;99.90;;;;;;4979609;28;20118;-70
2021/10/28 20:39:01;;;;;;;27.52;14.30;;;7.50;99.90;;;;;;4978804;28;20027;-71
2021/10/28 20:41:28;;;;;;;27.17;14.70;;;7.50;99.90;;;;;;4979650;28;20375;-70
2021/10/28 20:43:57;;;;;;;24.98;13.80;;;7.40;99.90;;;;;;4961993;28;20114;-70
2021/10/28 20:46:26;;;;;;;23.40;13.18;;;7.40;99.90;;;;;;4979270;28;20058;-70
2021/10/28 20:48:55;;;;;;;27.20;14.45;;;7.40;99.90;;;;;;4961656;28;20419;-70
2021/10/28 20:51:23;;;;;;;24.58;14.50;;;7.40;99.90;;;;;;4960819;28;20041;-70
2021/10/28 20:53:50;;;;;;;24.38;13.95;;;7.40;99.90;;;;;;4960619;28;20027;-71
2021/10/28 20:56:21;;;;;;;28.17;14.05;;;7.30;99.90;;;;;;4977780;28;20023;-71
2021/10/28 20:58:49;;;;;;;29.85;14.75;;;7.30;99.90;;;;;;4977952;28;20015;-70
2021/10/28 21:01:17;;;;;;;27.85;13.95;;;7.20;99.90;;;;;;4978076;28;20360;-70
2021/10/28 21:03:44;;;;;;;23.90;13.55;;;7.20;99.90;;;;;;4978264;28;20050;-70
2021/10/28 21:06:12;;;;;;;27.63;13.85;;;7.10;99.90;;;;;;4978195;28;20033;-70
2021/10/28 21:08:40;;;;;;;27.48;14.15;;;7.10;99.90;;;;;;4977782;28;20422;-71
2021/10/28 21:11:08;;;;;;;25.83;14.32;;;7.10;99.90;;;;;;4977630;28;20035;-71
2021/10/28 21:13:36;;;;;;;25.75;13.40;;;7.10;99.90;;;;;;4978318;28;20109;-70
2021/10/28 21:16:04;;;;;;;25.15;13.38;;;7.00;99.90;;;;;;4978492;28;20026;-70
2021/10/28 21:18:32;;;;;;;22.92;13.07;;;7.00;99.90;;;;;;4978645;28;20370;-70
2021/10/28 21:21:02;;;;;;;27.77;14.65;;;7.00;99.90;;;;;;4978462;28;20027;-70
2021/10/28 21:23:30;;;;;;;26.50;13.27;;;6.90;99.90;;;;;;4978491;28;20034;-70
2021/10/28 21:25:58;;;;;;;29.00;14.93;;;6.90;99.90;;;;;;4978722;28;20323;-70
2021/10/28 21:28:26;;;;;;;25.95;12.05;;;6.90;99.90;;;;;;4978792;28;20035;-70
2021/10/28 21:30:54;;;;;;;30.67;13.02;;;6.90;99.90;;;;;;4978412;28;20097;-70
2021/10/28 21:33:22;;;;;;;24.95;14.00;;;6.90;99.90;;;;;;4977675;28;20051;-70
2021/10/28 21:35:50;;;;;;;25.42;13.38;;;6.90;99.90;;;;;;4977476;28;20027;-70
2021/10/28 21:38:19;;;;;;;24.92;12.93;;;6.90;99.90;;;;;;4978133;28;20023;-70
2021/10/28 21:40:47;;;;;;;28.90;14.20;;;6.90;99.90;;;;;;4977192;28;20394;-70